sensor_id;sensor_type;location;lat;lon;timestamp;temperature;humidity
38241;DHT22;24037;49.536;8.500;2023-06-14T00:02:18;15.30;99.90
38241;DHT22;24037;49.536;8.500;2023-06-14T00:04:44;15.20;99.90
38241;DHT22;24037;49.536;8.500;2023-06-14T00:07:11;15.20;99.90
38241;DHT22;24037;49.536;8.500;2023-06-14T00:09:39;15.20;99.90
38241;DHT22;24037;49.536;8.500;2023-06-14T00:12:06;15.10;99.90
38241;DHT22;24037;49.536;8.500;2023-06-14T00:14:32;15.10;99.90
38241;DHT22;24037;49.536;8.500;2023-06-14T00:16:58;15.10;99.90
38241;DHT22;24037;49.536;8.500;2023-06-14T00:19:26;15.10;99.90
38241;DHT22;24037;49.536;8.500;2023-06-14T00:21:52;15.00;99.90
38241;DHT22;24037;49.536;8.500;2023-06-14T00:24:19;15.00;99.90
38241;DHT22;24037;49.536;8.500;2023-06-14T00:26:46;15.00;99.90
38241;DHT22;24037;49.536;8.500;2023-06-14T00:29:13;14.90;99.90
38241;DHT22;24037;49.536;8.500;2023-06-14T00:31:39;14.80;99.90
38241;DHT22;24037;49.536;8.500;2023-06-14T00:34:05;14.60;99.90
38241;DHT22;24037;49.536;8.500;2023-06-14T00:36:32;14.60;99.90
38241;DHT22;24037;49.536;8.500;2023-06-14T00:38:59;14.50;99.90
38241;DHT22;24037;49.536;8.500;2023-06-14T00:41:25;14.40;99.90
38241;DHT22;24037;49.536;8.500;2023-06-14T00:43:51;14.50;99.90
38241;DHT22;24037;49.536;8.500;2023-06-14T00:46:18;14.50;99.90
38241;DHT22;24037;49.536;8.500;2023-06-14T00:48:45;14.50;99.90
38241;DHT22;24037;49.536;8.500;2023-06-14T00:51:11;14.50;99.90
38241;DHT22;24037;49.536;8.500;2023-06-14T00:53:38;14.40;99.90
38241;DHT22;24037;49.536;8.500;2023-06-14T00:56:05;14.30;99.90
38241;DHT22;24037;49.536;8.500;2023-06-14T00:58:32;14.20;99.90
38241;DHT22;24037;49.536;8.500;2023-06-14T01:00:58;14.10;99.90
38241;DHT22;24037;49.536;8.500;2023-06-14T01:03:25;14.00;99.90
38241;DHT22;24037;49.536;8.500;2023-06-14T01:05:56;13.90;99.90
38241;DHT22;24037;49.536;8.500;2023-06-14T01:08:40;13.90;99.90
38241;DHT22;24037;49.536;8.500;2023-06-14T01:11:18;13.90;99.90
38241;DHT22;24037;49.536;8.500;2023-06-14T01:13:47;13.90;99.90
38241;DHT22;24037;49.536;8.500;2023-06-14T01:16:15;13.90;99.90
38241;DHT22;24037;49.536;8.500;2023-06-14T01:18:41;13.90;99.90
38241;DHT22;24037;49.536;8.500;2023-06-14T01:21:26;13.90;99.90
38241;DHT22;24037;49.536;8.500;2023-06-14T01:23:54;13.90;99.90
38241;DHT22;24037;49.536;8.500;2023-06-14T01:26:21;13.80;99.90
38241;DHT22;24037;49.536;8.500;2023-06-14T01:28:50;13.80;99.90
38241;DHT22;24037;49.536;8.500;2023-06-14T01:31:20;13.70;99.90
38241;DHT22;24037;49.536;8.500;2023-06-14T01:33:51;13.70;99.90
38241;DHT22;24037;49.536;8.500;2023-06-14T01:36:19;13.60;99.90
38241;DHT22;24037;49.536;8.500;2023-06-14T01:38:46;13.50;99.90
38241;DHT22;24037;49.536;8.500;2023-06-14T01:41:14;13.50;99.90
38241;DHT22;24037;49.536;8.500;2023-06-14T01:43:41;13.30;99.90
38241;DHT22;24037;49.536;8.500;2023-06-14T01:46:08;13.30;99.90
38241;DHT22;24037;49.536;8.500;2023-06-14T01:48:35;13.20;99.90
38241;DHT22;24037;49.536;8.500;2023-06-14T01:51:03;13.20;99.90
38241;DHT22;24037;49.536;8.500;2023-06-14T01:53:29;13.10;99.90
38241;DHT22;24037;49.536;8.500;2023-06-14T01:55:56;13.10;99.90
38241;DHT22;24037;49.536;8.500;2023-06-14T01:58:22;13.10;99.90
38241;DHT22;24037;49.536;8.500;2023-06-14T02:00:49;13.10;99.90
38241;DHT22;24037;49.536;8.500;2023-06-14T02:03:17;13.10;99.90
38241;DHT22;24037;49.536;8.500;2023-06-14T02:05:45;13.10;99.90
38241;DHT22;24037;49.536;8.500;2023-06-14T02:08:11;12.90;99.90
38241;DHT22;24037;49.536;8.500;2023-06-14T02:10:37;12.90;99.90
38241;DHT22;24037;49.536;8.500;2023-06-14T02:13:04;12.90;99.90
38241;DHT22;24037;49.536;8.500;2023-06-14T02:15:30;12.90;99.90
38241;DHT22;24037;49.536;8.500;2023-06-14T02:18:03;12.90;99.90
38241;DHT22;24037;49.536;8.500;2023-06-14T02:20:29;12.90;99.90
38241;DHT22;24037;49.536;8.500;2023-06-14T02:22:57;12.80;99.90
38241;DHT22;24037;49.536;8.500;2023-06-14T02:25:23;12.70;99.90
38241;DHT22;24037;49.536;8.500;2023-06-14T02:27:49;12.70;99.90
38241;DHT22;24037;49.536;8.500;2023-06-14T02:30:16;12.60;99.90
38241;DHT22;24037;49.536;8.500;2023-06-14T02:32:42;12.60;99.90
38241;DHT22;24037;49.536;8.500;2023-06-14T02:35:09;12.60;1.00
38241;DHT22;24037;49.536;8.500;2023-06-14T02:37:35;12.70;99.90
38241;DHT22;24037;49.536;8.500;2023-06-14T02:40:02;12.60;99.90
38241;DHT22;24037;49.536;8.500;2023-06-14T02:42:31;12.60;1.00
38241;DHT22;24037;49.536;8.500;2023-06-14T02:44:57;12.70;1.00
38241;DHT22;24037;49.536;8.500;2023-06-14T02:47:23;12.80;1.00
38241;DHT22;24037;49.536;8.500;2023-06-14T02:49:50;12.70;1.00
38241;DHT22;24037;49.536;8.500;2023-06-14T02:52:16;12.60;1.00
38241;DHT22;24037;49.536;8.500;2023-06-14T02:54:42;12.50;1.00
38241;DHT22;24037;49.536;8.500;2023-06-14T02:57:10;12.50;1.00
38241;DHT22;24037;49.536;8.500;2023-06-14T02:59:37;12.50;1.00
38241;DHT22;24037;49.536;8.500;2023-06-14T03:02:04;12.50;1.00
38241;DHT22;24037;49.536;8.500;2023-06-14T03:04:32;12.50;1.00
38241;DHT22;24037;49.536;8.500;2023-06-14T03:07:03;12.50;1.00
38241;DHT22;24037;49.536;8.500;2023-06-14T03:09:36;12.40;1.00
38241;DHT22;24037;49.536;8.500;2023-06-14T03:12:07;12.40;1.00
38241;DHT22;24037;49.536;8.500;2023-06-14T03:14:33;12.30;1.00
38241;DHT22;24037;49.536;8.500;2023-06-14T03:17:01;12.30;1.00
38241;DHT22;24037;49.536;8.500;2023-06-14T03:19:29;12.30;1.00
38241;DHT22;24037;49.536;8.500;2023-06-14T03:21:55;12.30;1.00
38241;DHT22;24037;49.536;8.500;2023-06-14T03:24:25;12.40;1.00
38241;DHT22;24037;49.536;8.500;2023-06-14T03:26:56;12.30;1.00
38241;DHT22;24037;49.536;8.500;2023-06-14T03:29:23;12.30;1.00
38241;DHT22;24037;49.536;8.500;2023-06-14T03:31:58;12.30;1.00
38241;DHT22;24037;49.536;8.500;2023-06-14T03:34:28;12.40;1.00
38241;DHT22;24037;49.536;8.500;2023-06-14T03:36:54;12.30;1.00
38241;DHT22;24037;49.536;8.500;2023-06-14T03:39:21;12.40;1.00
38241;DHT22;24037;49.536;8.500;2023-06-14T03:41:47;12.40;1.00
38241;DHT22;24037;49.536;8.500;2023-06-14T03:44:18;12.40;1.00
38241;DHT22;24037;49.536;8.500;2023-06-14T03:46:45;12.50;1.00
38241;DHT22;24037;49.536;8.500;2023-06-14T03:49:13;12.50;1.00
38241;DHT22;24037;49.536;8.500;2023-06-14T03:51:39;12.50;1.00
38241;DHT22;24037;49.536;8.500;2023-06-14T03:54:06;12.60;1.00
38241;DHT22;24037;49.536;8.500;2023-06-14T03:56:33;12.60;1.00
38241;DHT22;24037;49.536;8.500;2023-06-14T03:59:00;12.60;1.00
38241;DHT22;24037;49.536;8.500;2023-06-14T04:01:28;12.70;1.00
38241;DHT22;24037;49.536;8.500;2023-06-14T04:03:58;12.80;1.00
38241;DHT22;24037;49.536;8.500;2023-06-14T04:06:25;12.90;1.00
38241;DHT22;24037;49.536;8.500;2023-06-14T04:08:59;13.00;1.00
38241;DHT22;24037;49.536;8.500;2023-06-14T04:11:30;13.10;99.90
38241;DHT22;24037;49.536;8.500;2023-06-14T04:13:58;13.20;99.90
38241;DHT22;24037;49.536;8.500;2023-06-14T04:16:26;13.30;99.90
38241;DHT22;24037;49.536;8.500;2023-06-14T04:18:53;13.60;99.90
38241;DHT22;24037;49.536;8.500;2023-06-14T04:21:21;14.10;99.90
38241;DHT22;24037;49.536;8.500;2023-06-14T04:23:52;14.70;99.90
38241;DHT22;24037;49.536;8.500;2023-06-14T04:26:22;15.10;99.90
38241;DHT22;24037;49.536;8.500;2023-06-14T04:28:50;15.30;99.90
38241;DHT22;24037;49.536;8.500;2023-06-14T04:31:17;15.40;99.90
38241;DHT22;24037;49.536;8.500;2023-06-14T04:33:44;15.40;99.90
38241;DHT22;24037;49.536;8.500;2023-06-14T04:36:16;15.50;99.90
38241;DHT22;24037;49.536;8.500;2023-06-14T04:38:44;15.80;99.90
38241;DHT22;24037;49.536;8.500;2023-06-14T04:41:13;15.90;99.90
38241;DHT22;24037;49.536;8.500;2023-06-14T04:43:42;16.20;99.90
38241;DHT22;24037;49.536;8.500;2023-06-14T04:46:09;16.20;99.90
38241;DHT22;24037;49.536;8.500;2023-06-14T04:48:38;16.30;99.90
38241;DHT22;24037;49.536;8.500;2023-06-14T04:51:09;16.30;99.90
38241;DHT22;24037;49.536;8.500;2023-06-14T04:53:36;16.40;99.90
38241;DHT22;24037;49.536;8.500;2023-06-14T04:56:03;16.60;99.90
38241;DHT22;24037;49.536;8.500;2023-06-14T04:58:31;16.90;99.90
38241;DHT22;24037;49.536;8.500;2023-06-14T05:00:57;17.30;99.90
38241;DHT22;24037;49.536;8.500;2023-06-14T05:03:25;17.30;99.90
38241;DHT22;24037;49.536;8.500;2023-06-14T05:05:52;17.30;99.90
38241;DHT22;24037;49.536;8.500;2023-06-14T05:08:21;17.70;99.90
38241;DHT22;24037;49.536;8.500;2023-06-14T05:10:50;17.90;99.90
38241;DHT22;24037;49.536;8.500;2023-06-14T05:13:17;18.50;99.90
38241;DHT22;24037;49.536;8.500;2023-06-14T05:15:44;18.90;99.90
38241;DHT22;24037;49.536;8.500;2023-06-14T05:18:12;18.70;99.90
38241;DHT22;24037;49.536;8.500;2023-06-14T05:20:39;18.90;99.90
38241;DHT22;24037;49.536;8.500;2023-06-14T05:23:05;19.00;99.90
38241;DHT22;24037;49.536;8.500;2023-06-14T05:25:32;19.40;99.90
38241;DHT22;24037;49.536;8.500;2023-06-14T05:27:58;19.50;99.90
38241;DHT22;24037;49.536;8.500;2023-06-14T05:30:24;19.20;99.90
38241;DHT22;24037;49.536;8.500;2023-06-14T05:32:50;19.10;99.90
38241;DHT22;24037;49.536;8.500;2023-06-14T05:35:16;19.40;99.90
38241;DHT22;24037;49.536;8.500;2023-06-14T05:37:42;19.50;99.90
38241;DHT22;24037;49.536;8.500;2023-06-14T05:40:09;20.20;99.90
38241;DHT22;24037;49.536;8.500;2023-06-14T05:42:35;20.40;99.90
38241;DHT22;24037;49.536;8.500;2023-06-14T05:45:03;21.20;99.90
38241;DHT22;24037;49.536;8.500;2023-06-14T05:47:29;20.80;99.90
38241;DHT22;24037;49.536;8.500;2023-06-14T05:49:56;20.90;99.90
38241;DHT22;24037;49.536;8.500;2023-06-14T05:52:22;21.20;99.90
38241;DHT22;24037;49.536;8.500;2023-06-14T05:54:48;21.10;99.90
38241;DHT22;24037;49.536;8.500;2023-06-14T05:57:15;21.00;99.90
38241;DHT22;24037;49.536;8.500;2023-06-14T05:59:41;21.20;99.90
38241;DHT22;24037;49.536;8.500;2023-06-14T06:02:07;21.80;99.90
38241;DHT22;24037;49.536;8.500;2023-06-14T06:04:33;21.50;99.90
38241;DHT22;24037;49.536;8.500;2023-06-14T06:06:59;21.90;99.90
38241;DHT22;24037;49.536;8.500;2023-06-14T06:09:26;23.00;99.90
38241;DHT22;24037;49.536;8.500;2023-06-14T06:11:52;22.70;99.90
38241;DHT22;24037;49.536;8.500;2023-06-14T06:14:18;22.40;99.90
38241;DHT22;24037;49.536;8.500;2023-06-14T06:16:45;21.70;99.90
38241;DHT22;24037;49.536;8.500;2023-06-14T06:19:11;22.80;99.90
38241;DHT22;24037;49.536;8.500;2023-06-14T06:21:37;23.70;94.80
38241;DHT22;24037;49.536;8.500;2023-06-14T06:24:05;24.40;85.10
38241;DHT22;24037;49.536;8.500;2023-06-14T06:26:32;24.70;81.20
38241;DHT22;24037;49.536;8.500;2023-06-14T06:28:58;24.30;77.10
38241;DHT22;24037;49.536;8.500;2023-06-14T06:31:25;24.30;75.30
38241;DHT22;24037;49.536;8.500;2023-06-14T06:33:56;23.40;87.70
38241;DHT22;24037;49.536;8.500;2023-06-14T06:36:22;23.70;84.70
38241;DHT22;24037;49.536;8.500;2023-06-14T06:38:48;24.00;83.90
38241;DHT22;24037;49.536;8.500;2023-06-14T06:41:15;24.40;73.50
38241;DHT22;24037;49.536;8.500;2023-06-14T06:43:41;24.30;77.40
38241;DHT22;24037;49.536;8.500;2023-06-14T06:46:09;25.20;62.70
38241;DHT22;24037;49.536;8.500;2023-06-14T06:48:35;24.90;55.10
38241;DHT22;24037;49.536;8.500;2023-06-14T06:51:02;24.80;61.10
38241;DHT22;24037;49.536;8.500;2023-06-14T06:53:28;24.50;62.30
38241;DHT22;24037;49.536;8.500;2023-06-14T06:55:54;24.90;62.10
38241;DHT22;24037;49.536;8.500;2023-06-14T06:58:21;23.90;73.30
38241;DHT22;24037;49.536;8.500;2023-06-14T07:00:48;24.30;73.60
38241;DHT22;24037;49.536;8.500;2023-06-14T07:03:14;24.50;65.20
38241;DHT22;24037;49.536;8.500;2023-06-14T07:05:40;24.50;73.80
38241;DHT22;24037;49.536;8.500;2023-06-14T07:08:06;24.70;62.60
38241;DHT22;24037;49.536;8.500;2023-06-14T07:10:32;24.70;60.50
38241;DHT22;24037;49.536;8.500;2023-06-14T07:12:59;24.60;62.40
38241;DHT22;24037;49.536;8.500;2023-06-14T07:15:25;25.40;56.40
38241;DHT22;24037;49.536;8.500;2023-06-14T07:17:51;24.70;57.50
38241;DHT22;24037;49.536;8.500;2023-06-14T07:20:19;24.80;57.10
38241;DHT22;24037;49.536;8.500;2023-06-14T07:22:48;24.90;60.70
38241;DHT22;24037;49.536;8.500;2023-06-14T07:25:14;25.60;59.10
38241;DHT22;24037;49.536;8.500;2023-06-14T07:27:42;25.40;61.70
38241;DHT22;24037;49.536;8.500;2023-06-14T07:30:09;25.30;54.60
38241;DHT22;24037;49.536;8.500;2023-06-14T07:32:36;25.30;55.10
38241;DHT22;24037;49.536;8.500;2023-06-14T07:35:02;24.50;79.20
38241;DHT22;24037;49.536;8.500;2023-06-14T07:37:29;25.10;67.20
38241;DHT22;24037;49.536;8.500;2023-06-14T07:39:55;24.60;73.80
38241;DHT22;24037;49.536;8.500;2023-06-14T07:42:21;25.50;67.60
38241;DHT22;24037;49.536;8.500;2023-06-14T07:44:47;26.00;44.70
38241;DHT22;24037;49.536;8.500;2023-06-14T07:47:14;25.00;49.20
38241;DHT22;24037;49.536;8.500;2023-06-14T07:49:40;25.20;54.60
38241;DHT22;24037;49.536;8.500;2023-06-14T07:52:07;24.70;55.20
38241;DHT22;24037;49.536;8.500;2023-06-14T07:54:33;24.30;67.20
38241;DHT22;24037;49.536;8.500;2023-06-14T07:56:59;24.10;73.60
38241;DHT22;24037;49.536;8.500;2023-06-14T07:59:26;23.90;80.70
38241;DHT22;24037;49.536;8.500;2023-06-14T08:01:53;23.40;79.90
38241;DHT22;24037;49.536;8.500;2023-06-14T08:04:19;23.70;85.40
38241;DHT22;24037;49.536;8.500;2023-06-14T08:06:45;24.20;80.80
38241;DHT22;24037;49.536;8.500;2023-06-14T08:09:13;24.70;53.20
38241;DHT22;24037;49.536;8.500;2023-06-14T08:11:39;24.60;54.90
38241;DHT22;24037;49.536;8.500;2023-06-14T08:14:05;24.70;60.40
38241;DHT22;24037;49.536;8.500;2023-06-14T08:16:31;25.20;54.80
38241;DHT22;24037;49.536;8.500;2023-06-14T08:18:57;25.20;53.30
38241;DHT22;24037;49.536;8.500;2023-06-14T08:21:23;24.80;60.10
38241;DHT22;24037;49.536;8.500;2023-06-14T08:23:49;24.10;84.80
38241;DHT22;24037;49.536;8.500;2023-06-14T08:26:19;25.30;68.90
38241;DHT22;24037;49.536;8.500;2023-06-14T08:28:45;25.60;53.20
38241;DHT22;24037;49.536;8.500;2023-06-14T08:31:12;25.50;54.40
38241;DHT22;24037;49.536;8.500;2023-06-14T08:33:39;25.40;57.80
38241;DHT22;24037;49.536;8.500;2023-06-14T08:36:09;25.80;56.70
38241;DHT22;24037;49.536;8.500;2023-06-14T08:38:36;24.90;53.40
38241;DHT22;24037;49.536;8.500;2023-06-14T08:41:05;25.00;57.10
38241;DHT22;24037;49.536;8.500;2023-06-14T08:43:34;24.70;60.80
38241;DHT22;24037;49.536;8.500;2023-06-14T08:46:02;24.80;74.10
38241;DHT22;24037;49.536;8.500;2023-06-14T08:48:30;25.20;39.20
38241;DHT22;24037;49.536;8.500;2023-06-14T08:51:00;25.60;41.00
38241;DHT22;24037;49.536;8.500;2023-06-14T08:53:33;25.00;39.50
38241;DHT22;24037;49.536;8.500;2023-06-14T08:55:59;25.30;38.90
38241;DHT22;24037;49.536;8.500;2023-06-14T08:58:28;25.50;46.10
38241;DHT22;24037;49.536;8.500;2023-06-14T09:00:57;26.10;34.80
38241;DHT22;24037;49.536;8.500;2023-06-14T09:03:24;26.10;23.40
38241;DHT22;24037;49.536;8.500;2023-06-14T09:05:56;25.10;18.90
38241;DHT22;24037;49.536;8.500;2023-06-14T09:08:25;24.70;31.10
38241;DHT22;24037;49.536;8.500;2023-06-14T09:10:51;26.00;25.20
38241;DHT22;24037;49.536;8.500;2023-06-14T09:13:17;25.50;16.70
38241;DHT22;24037;49.536;8.500;2023-06-14T09:15:43;24.50;21.40
38241;DHT22;24037;49.536;8.500;2023-06-14T09:18:09;24.90;30.40
38241;DHT22;24037;49.536;8.500;2023-06-14T09:20:35;25.80;29.50
38241;DHT22;24037;49.536;8.500;2023-06-14T09:23:01;25.60;30.80
38241;DHT22;24037;49.536;8.500;2023-06-14T09:25:28;26.00;18.00
38241;DHT22;24037;49.536;8.500;2023-06-14T09:27:54;25.80;19.10
38241;DHT22;24037;49.536;8.500;2023-06-14T09:30:20;25.30;30.50
38241;DHT22;24037;49.536;8.500;2023-06-14T09:32:46;25.30;27.60
38241;DHT22;24037;49.536;8.500;2023-06-14T09:35:12;25.30;23.10
38241;DHT22;24037;49.536;8.500;2023-06-14T09:37:38;25.40;22.00
38241;DHT22;24037;49.536;8.500;2023-06-14T09:40:05;25.80;25.20
38241;DHT22;24037;49.536;8.500;2023-06-14T09:42:31;26.70;17.00
38241;DHT22;24037;49.536;8.500;2023-06-14T09:44:57;26.10;18.00
38241;DHT22;24037;49.536;8.500;2023-06-14T09:47:24;25.30;25.50
38241;DHT22;24037;49.536;8.500;2023-06-14T09:49:50;24.60;28.70
38241;DHT22;24037;49.536;8.500;2023-06-14T09:52:17;24.90;33.70
38241;DHT22;24037;49.536;8.500;2023-06-14T09:54:44;25.70;26.00
38241;DHT22;24037;49.536;8.500;2023-06-14T09:57:12;26.50;23.90
38241;DHT22;24037;49.536;8.500;2023-06-14T09:59:42;27.00;19.10
38241;DHT22;24037;49.536;8.500;2023-06-14T10:02:14;27.00;16.50
38241;DHT22;24037;49.536;8.500;2023-06-14T10:04:46;26.10;17.40
38241;DHT22;24037;49.536;8.500;2023-06-14T10:07:13;25.70;23.20
38241;DHT22;24037;49.536;8.500;2023-06-14T10:09:42;25.70;18.20
38241;DHT22;24037;49.536;8.500;2023-06-14T10:12:11;25.70;23.10
38241;DHT22;24037;49.536;8.500;2023-06-14T10:14:41;24.90;18.80
38241;DHT22;24037;49.536;8.500;2023-06-14T10:17:08;24.90;23.40
38241;DHT22;24037;49.536;8.500;2023-06-14T10:19:42;25.80;26.80
38241;DHT22;24037;49.536;8.500;2023-06-14T10:22:21;26.00;21.60
38241;DHT22;24037;49.536;8.500;2023-06-14T10:24:50;25.20;23.50
38241;DHT22;24037;49.536;8.500;2023-06-14T10:27:17;24.60;29.20
38241;DHT22;24037;49.536;8.500;2023-06-14T10:32:24;24.80;30.30
38241;DHT22;24037;49.536;8.500;2023-06-14T10:35:09;24.80;28.30
38241;DHT22;24037;49.536;8.500;2023-06-14T10:37:40;24.10;36.50
38241;DHT22;24037;49.536;8.500;2023-06-14T10:40:06;24.50;34.80
38241;DHT22;24037;49.536;8.500;2023-06-14T10:42:34;24.50;32.70
38241;DHT22;24037;49.536;8.500;2023-06-14T10:45:00;24.40;33.30
38241;DHT22;24037;49.536;8.500;2023-06-14T10:49:53;24.40;36.40
38241;DHT22;24037;49.536;8.500;2023-06-14T10:52:29;24.70;28.70
38241;DHT22;24037;49.536;8.500;2023-06-14T10:55:40;24.50;27.90
38241;DHT22;24037;49.536;8.500;2023-06-14T10:57:43;24.50;25.20
38241;DHT22;24037;49.536;8.500;2023-06-14T11:00:10;24.20;22.10
38241;DHT22;24037;49.536;8.500;2023-06-14T11:03:07;24.60;22.30
38241;DHT22;24037;49.536;8.500;2023-06-14T11:12:59;25.10;26.90
38241;DHT22;24037;49.536;8.500;2023-06-14T11:15:31;24.40;29.40
38241;DHT22;24037;49.536;8.500;2023-06-14T11:17:57;23.90;43.20
38241;DHT22;24037;49.536;8.500;2023-06-14T11:20:27;23.60;46.70
38241;DHT22;24037;49.536;8.500;2023-06-14T11:22:53;23.40;46.90
38241;DHT22;24037;49.536;8.500;2023-06-14T11:25:19;23.50;45.20
38241;DHT22;24037;49.536;8.500;2023-06-14T11:27:46;23.60;34.60
38241;DHT22;24037;49.536;8.500;2023-06-14T11:30:12;24.00;48.50
38241;DHT22;24037;49.536;8.500;2023-06-14T11:32:39;24.60;42.40
38241;DHT22;24037;49.536;8.500;2023-06-14T11:35:05;24.60;39.70
38241;DHT22;24037;49.536;8.500;2023-06-14T11:37:32;24.70;36.90
38241;DHT22;24037;49.536;8.500;2023-06-14T11:40:01;24.70;38.90
38241;DHT22;24037;49.536;8.500;2023-06-14T11:42:27;24.70;33.30
38241;DHT22;24037;49.536;8.500;2023-06-14T11:44:54;24.10;36.30
38241;DHT22;24037;49.536;8.500;2023-06-14T11:47:20;24.20;38.70
38241;DHT22;24037;49.536;8.500;2023-06-14T11:49:46;25.00;33.30
38241;DHT22;24037;49.536;8.500;2023-06-14T11:52:14;25.10;22.20
38241;DHT22;24037;49.536;8.500;2023-06-14T11:54:40;25.00;31.40
38241;DHT22;24037;49.536;8.500;2023-06-14T11:57:07;24.80;30.80
38241;DHT22;24037;49.536;8.500;2023-06-14T11:59:37;24.80;32.80
38241;DHT22;24037;49.536;8.500;2023-06-14T12:02:04;24.70;28.90
38241;DHT22;24037;49.536;8.500;2023-06-14T12:04:30;24.40;29.90
38241;DHT22;24037;49.536;8.500;2023-06-14T12:06:56;24.00;38.40
38241;DHT22;24037;49.536;8.500;2023-06-14T12:09:23;23.80;40.50
38241;DHT22;24037;49.536;8.500;2023-06-14T12:12:00;23.80;45.70
38241;DHT22;24037;49.536;8.500;2023-06-14T12:14:32;23.90;46.90
38241;DHT22;24037;49.536;8.500;2023-06-14T12:17:05;23.80;43.90
38241;DHT22;24037;49.536;8.500;2023-06-14T12:19:41;24.00;42.00
38241;DHT22;24037;49.536;8.500;2023-06-14T12:22:07;24.70;38.50
38241;DHT22;24037;49.536;8.500;2023-06-14T12:24:34;24.50;36.40
38241;DHT22;24037;49.536;8.500;2023-06-14T12:27:01;24.20;36.90
38241;DHT22;24037;49.536;8.500;2023-06-14T12:29:30;24.00;45.50
38241;DHT22;24037;49.536;8.500;2023-06-14T12:31:56;23.90;44.60
38241;DHT22;24037;49.536;8.500;2023-06-14T12:34:23;24.00;49.10
38241;DHT22;24037;49.536;8.500;2023-06-14T12:36:55;23.70;49.50
38241;DHT22;24037;49.536;8.500;2023-06-14T12:39:21;23.70;53.90
38241;DHT22;24037;49.536;8.500;2023-06-14T12:41:47;23.70;47.80
38241;DHT22;24037;49.536;8.500;2023-06-14T12:44:14;23.70;51.40
38241;DHT22;24037;49.536;8.500;2023-06-14T12:46:43;23.80;49.90
38241;DHT22;24037;49.536;8.500;2023-06-14T12:49:10;24.10;44.00
38241;DHT22;24037;49.536;8.500;2023-06-14T12:51:37;24.70;29.60
38241;DHT22;24037;49.536;8.500;2023-06-14T12:54:03;24.90;26.90
38241;DHT22;24037;49.536;8.500;2023-06-14T12:56:29;24.80;29.50
38241;DHT22;24037;49.536;8.500;2023-06-14T12:58:55;24.70;32.60
38241;DHT22;24037;49.536;8.500;2023-06-14T13:01:21;25.00;34.70
38241;DHT22;24037;49.536;8.500;2023-06-14T13:03:47;25.00;31.10
38241;DHT22;24037;49.536;8.500;2023-06-14T13:06:13;24.20;29.30
38241;DHT22;24037;49.536;8.500;2023-06-14T13:08:39;24.10;34.10
38241;DHT22;24037;49.536;8.500;2023-06-14T13:11:05;24.00;35.30
38241;DHT22;24037;49.536;8.500;2023-06-14T13:13:31;24.30;31.30
38241;DHT22;24037;49.536;8.500;2023-06-14T13:15:57;24.80;27.60
38241;DHT22;24037;49.536;8.500;2023-06-14T13:18:23;24.90;27.00
38241;DHT22;24037;49.536;8.500;2023-06-14T13:20:49;25.20;25.70
38241;DHT22;24037;49.536;8.500;2023-06-14T13:23:15;25.40;21.30
38241;DHT22;24037;49.536;8.500;2023-06-14T13:25:41;25.50;27.40
38241;DHT22;24037;49.536;8.500;2023-06-14T13:28:07;25.30;23.40
38241;DHT22;24037;49.536;8.500;2023-06-14T13:30:33;24.90;26.60
38241;DHT22;24037;49.536;8.500;2023-06-14T13:32:59;24.40;29.50
38241;DHT22;24037;49.536;8.500;2023-06-14T13:35:25;24.40;38.00
38241;DHT22;24037;49.536;8.500;2023-06-14T13:37:51;24.50;39.80
38241;DHT22;24037;49.536;8.500;2023-06-14T13:40:17;24.60;34.60
38241;DHT22;24037;49.536;8.500;2023-06-14T13:42:43;24.90;29.20
38241;DHT22;24037;49.536;8.500;2023-06-14T13:45:10;25.30;27.80
38241;DHT22;24037;49.536;8.500;2023-06-14T13:47:37;25.00;26.60
38241;DHT22;24037;49.536;8.500;2023-06-14T13:50:03;24.60;31.90
38241;DHT22;24037;49.536;8.500;2023-06-14T13:52:29;24.60;36.00
38241;DHT22;24037;49.536;8.500;2023-06-14T13:54:55;24.60;34.80
38241;DHT22;24037;49.536;8.500;2023-06-14T13:57:21;24.30;35.90
38241;DHT22;24037;49.536;8.500;2023-06-14T13:59:47;24.50;35.50
38241;DHT22;24037;49.536;8.500;2023-06-14T14:02:14;25.00;32.00
38241;DHT22;24037;49.536;8.500;2023-06-14T14:04:40;25.00;29.20
38241;DHT22;24037;49.536;8.500;2023-06-14T14:07:06;24.60;28.70
38241;DHT22;24037;49.536;8.500;2023-06-14T14:09:33;24.60;33.20
38241;DHT22;24037;49.536;8.500;2023-06-14T14:12:00;24.90;29.60
38241;DHT22;24037;49.536;8.500;2023-06-14T14:14:27;25.00;27.40
38241;DHT22;24037;49.536;8.500;2023-06-14T14:16:54;25.20;23.90
38241;DHT22;24037;49.536;8.500;2023-06-14T14:19:23;25.40;27.60
38241;DHT22;24037;49.536;8.500;2023-06-14T14:21:50;25.40;22.00
38241;DHT22;24037;49.536;8.500;2023-06-14T14:24:16;25.40;22.80
38241;DHT22;24037;49.536;8.500;2023-06-14T14:26:42;25.30;20.80
38241;DHT22;24037;49.536;8.500;2023-06-14T14:29:08;25.10;23.40
38241;DHT22;24037;49.536;8.500;2023-06-14T14:31:37;24.80;29.30
38241;DHT22;24037;49.536;8.500;2023-06-14T14:34:03;24.60;29.50
38241;DHT22;24037;49.536;8.500;2023-06-14T14:36:29;24.10;35.50
38241;DHT22;24037;49.536;8.500;2023-06-14T14:38:55;24.00;37.70
38241;DHT22;24037;49.536;8.500;2023-06-14T14:41:21;23.90;39.20
38241;DHT22;24037;49.536;8.500;2023-06-14T14:43:46;24.10;41.60
38241;DHT22;24037;49.536;8.500;2023-06-14T14:46:13;24.30;40.00
38241;DHT22;24037;49.536;8.500;2023-06-14T14:48:39;24.50;36.70
38241;DHT22;24037;49.536;8.500;2023-06-14T14:51:05;24.90;34.30
38241;DHT22;24037;49.536;8.500;2023-06-14T14:53:31;25.00;26.90
38241;DHT22;24037;49.536;8.500;2023-06-14T14:55:57;25.20;29.20
38241;DHT22;24037;49.536;8.500;2023-06-14T14:58:23;25.50;23.70
38241;DHT22;24037;49.536;8.500;2023-06-14T15:00:49;25.30;27.20
38241;DHT22;24037;49.536;8.500;2023-06-14T15:03:15;25.30;28.40
38241;DHT22;24037;49.536;8.500;2023-06-14T15:05:41;25.40;27.20
38241;DHT22;24037;49.536;8.500;2023-06-14T15:08:07;25.60;27.40
38241;DHT22;24037;49.536;8.500;2023-06-14T15:10:40;25.50;21.50
38241;DHT22;24037;49.536;8.500;2023-06-14T15:13:07;25.10;22.50
38241;DHT22;24037;49.536;8.500;2023-06-14T15:15:36;24.60;26.20
38241;DHT22;24037;49.536;8.500;2023-06-14T15:18:03;24.20;26.80
38241;DHT22;24037;49.536;8.500;2023-06-14T15:20:29;24.10;27.50
38241;DHT22;24037;49.536;8.500;2023-06-14T15:22:55;24.10;29.10
38241;DHT22;24037;49.536;8.500;2023-06-14T15:25:28;23.90;31.00
38241;DHT22;24037;49.536;8.500;2023-06-14T15:27:54;23.90;37.10
38241;DHT22;24037;49.536;8.500;2023-06-14T15:30:20;24.10;36.00
38241;DHT22;24037;49.536;8.500;2023-06-14T15:32:46;24.50;33.90
38241;DHT22;24037;49.536;8.500;2023-06-14T15:35:15;24.80;23.10
38241;DHT22;24037;49.536;8.500;2023-06-14T15:37:41;25.00;23.80
38241;DHT22;24037;49.536;8.500;2023-06-14T15:40:07;25.30;21.30
38241;DHT22;24037;49.536;8.500;2023-06-14T15:42:33;25.30;27.50
38241;DHT22;24037;49.536;8.500;2023-06-14T15:44:59;25.10;25.50
38241;DHT22;24037;49.536;8.500;2023-06-14T15:47:25;24.70;26.80